createdAt,value
2018-05-21T00:00:48.041Z,100199.91
2018-05-21T00:03:15.682Z,100203.73
2018-05-21T00:05:43.251Z,100193.17
2018-05-21T00:08:10.830Z,100197.94
2018-05-21T00:10:38.413Z,100190.84
2018-05-21T00:13:06.002Z,100185.43
2018-05-21T00:15:33.665Z,100185.95
2018-05-21T00:18:01.302Z,100182.20
2018-05-21T00:20:28.869Z,100187.42
2018-05-21T00:22:56.445Z,100176.49
2018-05-21T00:25:24.087Z,100181.39
2018-05-21T00:27:51.657Z,100176.81
2018-05-21T00:30:19.433Z,100178.88
2018-05-21T00:32:47.204Z,100172.17
2018-05-21T00:35:15.079Z,100165.31
2018-05-21T00:37:42.812Z,100170.19
2018-05-21T00:40:10.563Z,100166.41
2018-05-21T00:42:38.313Z,100170.38
2018-05-21T00:45:06.055Z,100166.48
2018-05-21T00:47:33.840Z,100163.03
2018-05-21T00:50:01.568Z,100162.36
2018-05-21T00:52:29.368Z,100172.22
2018-05-21T00:55:09.009Z,100170.61
2018-05-21T00:57:36.868Z,100168.65
2018-05-21T01:00:04.724Z,100170.00
2018-05-21T01:02:32.463Z,100165.81
2018-05-21T01:05:00.228Z,100167.58
2018-05-21T01:07:27.952Z,100159.69
2018-05-21T01:09:55.791Z,100150.59
2018-05-21T01:12:23.536Z,100155.59
2018-05-21T01:14:51.351Z,100148.31
2018-05-21T01:17:19.757Z,100148.53
2018-05-21T01:19:47.505Z,100144.57
2018-05-21T01:22:15.256Z,100147.92
2018-05-21T01:24:43.032Z,100155.47
2018-05-21T01:27:10.816Z,100153.08
2018-05-21T01:29:38.559Z,100147.50
2018-05-21T01:32:06.372Z,100151.36
2018-05-21T01:34:34.207Z,100153.43
2018-05-21T01:37:01.959Z,100159.07
2018-05-21T01:39:29.731Z,100154.05
2018-05-21T01:41:57.489Z,100156.08
2018-05-21T01:44:25.272Z,100163.75
2018-05-21T01:46:53.024Z,100164.36
2018-05-21T01:49:20.819Z,100166.20
2018-05-21T01:51:48.545Z,100162.42
2018-05-21T01:54:16.274Z,100157.94
2018-05-21T01:56:44.049Z,100156.49
2018-05-21T01:59:11.621Z,100162.61
2018-05-21T02:01:39.253Z,100168.64
2018-05-21T02:04:06.881Z,100169.02
2018-05-21T02:06:34.452Z,100176.91
2018-05-21T02:09:02.032Z,100177.52
2018-05-21T02:11:29.661Z,100177.52
2018-05-21T02:13:57.239Z,100185.18
2018-05-21T02:16:24.936Z,100189.14
2018-05-21T02:18:52.538Z,100190.40
2018-05-21T02:21:20.102Z,100192.69
2018-05-21T02:23:47.677Z,100188.17
2018-05-21T02:26:15.317Z,100185.33
2018-05-21T02:28:42.885Z,100189.80
2018-05-21T02:31:10.466Z,100189.17
2018-05-21T02:33:38.029Z,100189.36
2018-05-21T02:36:05.653Z,100194.77
2018-05-21T02:38:33.237Z,100187.45
2018-05-21T02:41:00.869Z,100193.28
2018-05-21T02:43:28.446Z,100200.32
2018-05-21T02:45:56.012Z,100198.73
2018-05-21T02:48:23.589Z,100199.67
2018-05-21T02:50:51.226Z,100210.70
2018-05-21T02:53:18.850Z,100208.47
2018-05-21T02:55:46.422Z,100206.89
2018-05-21T02:58:14.054Z,100215.28
2018-05-21T03:00:41.630Z,100209.78
2018-05-21T03:03:09.213Z,100203.34
2018-05-21T03:05:36.842Z,100208.43
2018-05-21T03:08:04.415Z,100202.60
2018-05-21T03:10:32.083Z,100207.73
2018-05-21T03:12:59.669Z,100208.80
2018-05-21T03:15:27.245Z,100210.58
2018-05-21T03:17:54.949Z,100211.51
2018-05-21T03:20:22.512Z,100213.78
2018-05-21T03:22:50.084Z,100222.41
2018-05-21T03:25:17.685Z,100221.05
2018-05-21T03:27:45.256Z,100222.67
2018-05-21T03:30:12.887Z,100223.75
2018-05-21T03:32:40.466Z,100226.87
2018-05-21T03:35:08.037Z,100222.05
2018-05-21T03:37:35.616Z,100218.67
2018-05-21T03:40:03.241Z,100221.16
2018-05-21T03:42:30.816Z,100221.27
2018-05-21T03:44:58.375Z,100233.84
2018-05-21T03:47:25.996Z,100231.80
2018-05-21T03:49:53.625Z,100237.45
2018-05-21T03:52:21.189Z,100234.61
2018-05-21T03:54:48.834Z,100233.92
2018-05-21T03:57:16.400Z,100237.75
2018-05-21T04:02:59.128Z,100230.94
2018-05-21T04:05:26.708Z,100231.57
2018-05-21T04:07:54.305Z,100236.16
2018-05-21T04:10:21.945Z,100234.38
2018-05-21T04:12:49.513Z,100232.42
2018-05-21T04:15:17.196Z,100234.52
2018-05-21T04:17:44.760Z,100238.11
2018-05-21T04:20:12.328Z,100240.89
2018-05-21T04:22:39.927Z,100240.97
2018-05-21T04:25:07.484Z,100239.39
2018-05-21T04:27:35.125Z,100235.31
2018-05-21T04:30:02.693Z,100238.31
2018-05-21T04:32:30.316Z,100243.86
2018-05-21T04:34:57.889Z,100244.02
2018-05-21T04:37:25.535Z,100246.33
2018-05-21T04:39:53.115Z,100245.09
2018-05-21T04:42:20.829Z,100242.70
2018-05-21T04:44:48.396Z,100241.65
2018-05-21T04:47:16.169Z,100241.33
2018-05-21T04:49:43.789Z,100241.19
2018-05-21T04:52:11.431Z,100250.09
2018-05-21T04:54:38.996Z,100243.73
2018-05-21T04:57:06.625Z,100254.08
2018-05-21T04:59:34.171Z,100249.82
2018-05-21T05:02:01.801Z,100252.31
2018-05-21T05:04:29.424Z,100252.61
2018-05-21T05:06:57.087Z,100258.36
2018-05-21T05:09:24.711Z,100257.63
2018-05-21T05:11:52.284Z,100258.90
2018-05-21T05:14:19.912Z,100262.82
2018-05-21T05:16:47.480Z,100260.13
2018-05-21T05:19:15.111Z,100262.07
2018-05-21T05:21:42.738Z,100262.52
2018-05-21T05:24:10.432Z,100270.19
2018-05-21T05:26:38.095Z,100262.19
2018-05-21T05:29:05.663Z,100260.77
2018-05-21T05:31:33.237Z,100262.25
2018-05-21T05:34:00.808Z,100257.20
2018-05-21T05:36:28.384Z,100256.73
2018-05-21T05:38:55.958Z,100260.99
2018-05-21T05:41:23.571Z,100263.65
2018-05-21T05:43:51.133Z,100259.91
2018-05-21T05:46:18.734Z,100259.78
2018-05-21T05:48:46.318Z,100261.88
2018-05-21T05:51:13.901Z,100258.23
2018-05-21T05:53:41.483Z,100257.03
2018-05-21T05:56:09.105Z,100260.06
2018-05-21T05:58:36.785Z,100264.92
2018-05-21T06:01:04.413Z,100266.63
2018-05-21T06:03:32.036Z,100266.61
2018-05-21T06:05:59.624Z,100270.53
2018-05-21T06:08:27.238Z,100267.96
2018-05-21T06:10:54.829Z,100267.18
2018-05-21T06:13:22.400Z,100260.27
2018-05-21T06:15:50.033Z,100263.81
2018-05-21T06:18:17.609Z,100256.18
2018-05-21T06:20:45.176Z,100248.51
2018-05-21T06:23:12.805Z,100245.61
2018-05-21T06:25:40.404Z,100246.88
2018-05-21T06:28:07.977Z,100246.80
2018-05-21T06:30:35.603Z,100248.37
2018-05-21T06:33:03.275Z,100242.03
2018-05-21T06:35:30.835Z,100245.55
2018-05-21T06:37:58.395Z,100240.25
2018-05-21T06:40:25.968Z,100235.44
2018-05-21T06:42:53.531Z,100238.40
2018-05-21T06:45:21.109Z,100238.25
2018-05-21T06:47:48.756Z,100232.83
2018-05-21T06:50:16.315Z,100244.39
2018-05-21T06:52:43.886Z,100234.94
2018-05-21T06:55:11.454Z,100230.55
2018-05-21T06:57:39.032Z,100226.61
2018-05-21T07:00:06.598Z,100233.52
2018-05-21T07:02:34.242Z,100232.84
2018-05-21T07:05:01.894Z,100231.38
2018-05-21T07:07:29.528Z,100232.00
2018-05-21T07:09:57.148Z,100231.27
2018-05-21T07:12:24.713Z,100232.92
2018-05-21T07:14:52.302Z,100232.14
2018-05-21T07:17:19.873Z,100230.70
2018-05-21T07:19:47.574Z,100238.66
2018-05-21T07:22:15.225Z,100231.09
2018-05-21T07:24:42.801Z,100227.39
2018-05-21T07:27:10.377Z,100219.84
2018-05-21T07:29:37.936Z,100224.03
2018-05-21T07:32:05.509Z,100214.03
2018-05-21T07:34:33.130Z,100211.20
2018-05-21T07:37:00.688Z,100210.06
2018-05-21T07:39:28.346Z,100203.39
2018-05-21T07:41:55.987Z,100209.25
2018-05-21T07:44:23.573Z,100212.71
2018-05-21T07:46:51.135Z,100209.01
2018-05-21T07:49:18.750Z,100213.13
2018-05-21T07:51:46.316Z,100204.91
2018-05-21T07:54:13.887Z,100207.72
2018-05-21T07:56:41.470Z,100204.75
2018-05-21T07:59:09.042Z,100202.63
2018-05-21T08:01:36.634Z,100202.92
2018-05-21T08:04:04.244Z,100207.21
2018-05-21T08:06:31.878Z,100199.94
2018-05-21T08:08:59.516Z,100207.67
2018-05-21T08:11:27.077Z,100199.42
2018-05-21T08:13:54.655Z,100196.58
2018-05-21T08:16:22.212Z,100197.36
2018-05-21T08:18:49.845Z,100196.61
2018-05-21T08:21:17.468Z,100194.73
2018-05-21T08:23:45.138Z,100196.11
2018-05-21T08:26:12.705Z,100195.23
2018-05-21T08:28:40.328Z,100187.20
2018-05-21T08:31:07.953Z,100193.20
2018-05-21T08:33:35.569Z,100197.17
2018-05-21T08:36:03.201Z,100192.80
2018-05-21T08:38:30.835Z,100189.33
2018-05-21T08:40:58.531Z,100192.29
2018-05-21T08:43:26.161Z,100191.55
2018-05-21T08:45:53.735Z,100197.08
2018-05-21T08:48:21.414Z,100187.67
2018-05-21T08:50:49.031Z,100187.89
2018-05-21T08:53:16.653Z,100185.95
2018-05-21T08:55:44.270Z,100193.12
2018-05-21T08:58:11.900Z,100189.74
2018-05-21T09:00:39.467Z,100192.70
2018-05-21T09:03:07.028Z,100184.82
2018-05-21T09:05:34.597Z,100184.29
2018-05-21T09:08:02.171Z,100180.34
2018-05-21T09:10:29.877Z,100174.99
2018-05-21T09:12:57.440Z,100174.77
2018-05-21T09:15:25.000Z,100176.78
2018-05-21T09:17:52.637Z,100170.42
2018-05-21T09:20:20.204Z,100172.72
2018-05-21T09:22:47.832Z,100165.57
2018-05-21T09:25:15.448Z,100165.23
2018-05-21T09:27:43.073Z,100157.62
2018-05-21T09:30:10.701Z,100162.05
2018-05-21T09:32:38.328Z,100161.41
2018-05-21T09:35:05.882Z,100158.77
2018-05-21T09:37:33.440Z,100158.58
2018-05-21T09:40:01.061Z,100157.15
2018-05-21T09:42:28.621Z,100146.74
2018-05-21T09:44:56.248Z,100142.52
2018-05-21T09:47:23.821Z,100142.14
2018-05-21T09:49:51.404Z,100148.19
2018-05-21T09:52:18.970Z,100132.88
2018-05-21T09:54:46.546Z,100138.63
2018-05-21T09:57:14.227Z,100129.85
2018-05-21T09:59:41.901Z,100129.88
2018-05-21T10:02:09.530Z,100123.34
2018-05-21T10:04:37.165Z,100124.31
2018-05-21T10:07:04.730Z,100116.86
2018-05-21T10:09:32.365Z,100114.66
2018-05-21T10:11:59.991Z,100122.14
2018-05-21T10:14:27.597Z,100121.86
2018-05-21T10:16:55.156Z,100121.09
2018-05-21T10:19:22.875Z,100117.27
2018-05-21T10:21:50.392Z,100103.48
2018-05-21T10:24:17.981Z,100107.50
2018-05-21T10:26:45.553Z,100103.67
2018-05-21T10:29:13.177Z,100106.44
2018-05-21T10:31:40.869Z,100107.87
2018-05-21T10:34:08.437Z,100104.20
2018-05-21T10:36:36.009Z,100097.61
2018-05-21T10:39:03.748Z,100098.31
2018-05-21T10:41:31.370Z,100097.61
2018-05-21T10:43:59.022Z,100096.90
2018-05-21T10:46:26.593Z,100090.11
2018-05-21T10:48:54.222Z,100089.62
2018-05-21T10:51:21.871Z,100095.84
2018-05-21T10:53:49.388Z,100085.84
2018-05-21T10:56:17.026Z,100089.69
2018-05-21T10:58:44.609Z,100090.42
2018-05-21T11:01:12.293Z,100092.45
2018-05-21T11:03:39.876Z,100089.54
2018-05-21T11:06:07.562Z,100085.82
2018-05-21T11:08:35.198Z,100084.28
2018-05-21T11:11:02.762Z,100088.63
2018-05-21T11:13:30.408Z,100079.44
2018-05-21T11:15:58.034Z,100077.08
2018-05-21T11:18:25.620Z,100086.09
2018-05-21T11:20:53.184Z,100074.58
2018-05-21T11:23:20.869Z,100080.81
2018-05-21T11:25:48.437Z,100079.02
2018-05-21T11:28:16.021Z,100090.05
2018-05-21T11:30:43.584Z,100092.81
2018-05-21T11:33:11.148Z,100096.95
2018-05-21T11:35:38.777Z,100092.38
2018-05-21T11:38:06.405Z,100092.25
2018-05-21T11:40:34.077Z,100089.88
2018-05-21T11:43:01.713Z,100092.06
2018-05-21T11:45:29.277Z,100090.26
2018-05-21T11:47:56.848Z,100086.88
2018-05-21T11:50:24.414Z,100090.22
2018-05-21T11:52:51.984Z,100086.12
2018-05-21T11:55:19.556Z,100089.80
2018-05-21T11:57:47.176Z,100079.23
2018-05-21T12:00:14.750Z,100086.86
2018-05-21T12:02:42.347Z,100079.45
2018-05-21T12:05:09.920Z,100074.75
2018-05-21T12:07:37.577Z,100077.81
2018-05-21T12:10:05.157Z,100078.60
2018-05-21T12:12:32.711Z,100072.09
2018-05-21T12:15:00.324Z,100068.03
2018-05-21T12:17:27.880Z,100072.10
2018-05-21T12:19:55.444Z,100067.80
2018-05-21T12:22:23.077Z,100061.31
2018-05-21T12:24:50.615Z,100055.39
2018-05-21T12:27:18.249Z,100042.22
2018-05-21T12:29:45.821Z,100045.64
2018-05-21T12:32:13.456Z,100040.41
2018-05-21T12:34:41.038Z,100033.20
2018-05-21T12:37:08.670Z,100026.20
2018-05-21T12:39:36.285Z,100027.03
2018-05-21T12:42:03.905Z,100023.80
2018-05-21T12:44:31.537Z,100022.95
2018-05-21T12:46:59.191Z,100021.25
2018-05-21T12:49:26.769Z,100016.02
2018-05-21T12:51:54.337Z,100008.28
2018-05-21T12:54:21.977Z,100003.58
2018-05-21T12:56:49.628Z,100004.75
2018-05-21T12:59:17.206Z,100009.66
2018-05-21T13:01:44.841Z,100011.58
2018-05-21T13:04:12.468Z,100006.42
2018-05-21T13:06:40.101Z,100000.73
2018-05-21T13:09:07.769Z,100007.84
2018-05-21T13:11:35.332Z,100002.36
2018-05-21T13:14:02.921Z,99995.09
2018-05-21T13:16:30.485Z,99997.01
2018-05-21T13:18:58.158Z,99995.53
2018-05-21T13:21:25.713Z,99997.50
2018-05-21T13:23:53.325Z,99997.55
2018-05-21T13:26:20.902Z,100000.05
2018-05-21T13:28:48.469Z,99989.84
2018-05-21T13:31:16.109Z,99968.36
2018-05-21T13:33:43.731Z,99975.58
2018-05-21T13:36:11.345Z,99970.72
2018-05-21T13:38:38.979Z,99977.73
2018-05-21T13:41:06.607Z,99975.05
2018-05-21T13:43:34.159Z,99972.83
2018-05-21T13:46:01.732Z,99967.47
2018-05-21T13:48:29.369Z,99965.74
2018-05-21T13:50:57.039Z,99962.36
2018-05-21T13:53:24.668Z,99959.68
2018-05-21T13:55:52.226Z,99955.75
2018-05-21T13:58:19.789Z,99953.61
2018-05-21T14:00:47.348Z,99956.44
2018-05-21T14:03:14.904Z,99958.06
2018-05-21T14:05:42.539Z,99958.44
2018-05-21T14:08:10.056Z,99964.02
2018-05-21T14:10:37.593Z,99957.62
2018-05-21T14:13:05.169Z,99961.80
2018-05-21T14:15:32.729Z,99970.94
2018-05-21T14:18:00.300Z,99958.66
2018-05-21T14:20:27.893Z,99948.77
2018-05-21T14:22:55.577Z,99956.39
2018-05-21T14:25:23.195Z,99960.03
2018-05-21T14:27:50.745Z,99961.03
2018-05-21T14:30:18.312Z,99963.43
2018-05-21T14:32:45.873Z,99969.62
2018-05-21T14:35:13.460Z,99968.60
2018-05-21T14:37:41.077Z,99972.48
2018-05-21T14:40:08.705Z,99973.47
2018-05-21T14:42:36.331Z,99986.69
2018-05-21T14:45:03.892Z,99981.58
2018-05-21T14:47:31.520Z,99986.33
2018-05-21T14:49:59.073Z,99994.19
2018-05-21T14:52:26.637Z,100000.56
2018-05-21T14:54:54.228Z,99985.17
2018-05-21T14:57:21.836Z,100000.81
2018-05-21T14:59:49.401Z,100001.48
2018-05-21T15:02:16.956Z,99999.75
2018-05-21T15:04:44.521Z,99993.81
2018-05-21T15:07:12.225Z,99992.84
2018-05-21T15:09:39.863Z,99994.82
2018-05-21T15:12:07.433Z,99990.74
2018-05-21T15:14:34.996Z,99994.13
2018-05-21T15:17:02.581Z,100000.28
2018-05-21T15:19:30.247Z,99998.47
2018-05-21T15:21:57.902Z,100003.36
2018-05-21T15:26:59.363Z,99992.45
2018-05-21T15:29:26.938Z,99993.96
2018-05-21T15:31:54.557Z,100002.02
2018-05-21T15:34:22.216Z,99998.31
2018-05-21T15:36:49.778Z,99994.80
2018-05-21T15:39:17.348Z,99990.12
2018-05-21T15:41:44.909Z,99988.95
2018-05-21T15:44:12.532Z,99998.21
2018-05-21T15:46:40.185Z,99998.03
2018-05-21T15:49:07.801Z,99997.42
2018-05-21T15:51:35.424Z,99987.88
2018-05-21T15:54:03.045Z,99987.75
2018-05-21T15:56:30.631Z,99996.78
2018-05-21T15:58:58.263Z,99993.67
2018-05-21T16:01:25.966Z,99997.79
2018-05-21T16:03:53.533Z,99997.39
2018-05-21T16:06:21.097Z,99998.22
2018-05-21T16:08:48.739Z,99993.40
2018-05-21T16:11:16.368Z,99993.87
2018-05-21T16:13:43.938Z,99990.80
2018-05-21T16:16:11.490Z,99989.02
2018-05-21T16:18:39.188Z,99992.21
2018-05-21T16:21:06.759Z,100002.97
2018-05-21T16:23:34.316Z,99991.31
2018-05-21T16:26:01.884Z,99998.55
2018-05-21T16:28:29.516Z,100000.16
2018-05-21T16:30:57.153Z,99998.97
2018-05-21T16:33:24.721Z,100001.30
2018-05-21T16:35:52.368Z,100004.13
2018-05-21T16:38:19.925Z,100004.89
2018-05-21T16:40:47.488Z,100005.72
2018-05-21T16:43:15.065Z,100008.01
2018-05-21T16:45:42.692Z,100014.83
2018-05-21T16:48:10.327Z,100015.40
2018-05-21T16:50:37.946Z,100017.39
2018-05-21T16:53:05.590Z,100015.69
2018-05-21T16:55:33.209Z,100018.17
2018-05-21T16:58:00.899Z,100017.99
2018-05-21T17:00:28.564Z,100020.76
2018-05-21T17:02:56.090Z,100022.80
2018-05-21T17:05:23.716Z,100025.96
2018-05-21T17:07:51.277Z,100027.20
2018-05-21T17:10:18.948Z,100026.03
2018-05-21T17:12:46.500Z,100028.08
2018-05-21T17:15:14.135Z,100032.55
2018-05-21T17:17:41.707Z,100035.55
2018-05-21T17:20:09.287Z,100044.02
2018-05-21T17:22:36.933Z,100038.92
2018-05-21T17:25:04.531Z,100045.89
2018-05-21T17:27:32.153Z,100037.34
2018-05-21T17:29:59.719Z,100036.58
2018-05-21T17:32:27.284Z,100042.52
2018-05-21T17:34:54.881Z,100048.16
2018-05-21T17:37:22.448Z,100050.97
2018-05-21T17:39:50.021Z,100050.23
2018-05-21T17:42:17.595Z,100054.04
2018-05-21T17:44:45.216Z,100055.27
2018-05-21T17:47:12.798Z,100049.69
2018-05-21T17:49:40.354Z,100054.72
2018-05-21T17:52:07.970Z,100055.05
2018-05-21T17:54:35.598Z,100058.23
2018-05-21T17:57:03.169Z,100051.36
2018-05-21T17:59:30.802Z,100060.61
2018-05-21T18:01:58.422Z,100064.85
2018-05-21T18:04:25.986Z,100074.68
2018-05-21T18:06:53.549Z,100071.00
2018-05-21T18:09:21.128Z,100075.27
2018-05-21T18:11:48.692Z,100075.11
2018-05-21T18:14:16.285Z,100081.09
2018-05-21T18:16:43.876Z,100078.36
2018-05-21T18:19:11.501Z,100079.67
2018-05-21T18:21:39.067Z,100082.95
2018-05-21T18:24:06.633Z,100079.02
2018-05-21T18:26:34.216Z,100080.94
2018-05-21T18:29:01.852Z,100083.09
2018-05-21T18:31:29.428Z,100082.48
2018-05-21T18:33:56.999Z,100074.64
2018-05-21T18:36:24.642Z,100089.98
2018-05-21T18:38:52.209Z,100089.86
2018-05-21T18:41:19.781Z,100095.97
2018-05-21T18:43:47.373Z,100094.48
2018-05-21T18:46:14.944Z,100091.35
2018-05-21T18:48:42.584Z,100092.53
2018-05-21T18:51:10.218Z,100095.91
2018-05-21T18:53:37.836Z,100096.33
2018-05-21T18:56:05.473Z,100090.05
2018-05-21T18:58:33.113Z,100102.99
2018-05-21T19:01:00.748Z,100098.41
2018-05-21T19:03:28.327Z,100103.96
2018-05-21T19:05:55.970Z,100099.49
2018-05-21T19:08:23.551Z,100098.93
2018-05-21T19:10:51.176Z,100103.07
2018-05-21T19:13:18.745Z,100104.39
2018-05-21T19:15:46.388Z,100103.41
2018-05-21T19:18:13.990Z,100108.88
2018-05-21T19:20:41.622Z,100122.09
2018-05-21T19:23:09.174Z,100126.16
2018-05-21T19:25:36.737Z,100123.98
2018-05-21T19:28:04.359Z,100135.77
2018-05-21T19:30:31.924Z,100132.58
2018-05-21T19:32:59.488Z,100128.48
2018-05-21T19:35:27.068Z,100132.17
2018-05-21T19:37:54.632Z,100133.55
2018-05-21T19:40:22.234Z,100136.83
2018-05-21T19:42:49.802Z,100138.79
2018-05-21T19:45:17.486Z,100142.70
2018-05-21T19:47:45.050Z,100137.12
2018-05-21T19:50:12.617Z,100137.98
2018-05-21T19:52:40.249Z,100137.97
2018-05-21T19:55:07.800Z,100144.38
2018-05-21T19:57:35.372Z,100145.73
2018-05-21T20:00:02.967Z,100141.55
2018-05-21T20:02:30.665Z,100137.38
2018-05-21T20:04:58.225Z,100139.34
2018-05-21T20:07:25.858Z,100136.14
2018-05-21T20:09:53.590Z,100131.41
2018-05-21T20:12:21.234Z,100140.18
2018-05-21T20:14:48.816Z,100143.57
2018-05-21T20:17:16.381Z,100141.44
2018-05-21T20:19:44.017Z,100140.91
2018-05-21T20:22:11.592Z,100138.89
2018-05-21T20:24:39.160Z,100135.51
2018-05-21T20:27:06.802Z,100146.37
2018-05-21T20:29:34.429Z,100150.64
2018-05-21T20:32:01.981Z,100147.56
2018-05-21T20:34:29.540Z,100141.77
2018-05-21T20:36:57.158Z,100139.35
2018-05-21T20:39:24.777Z,100146.31
2018-05-21T20:41:52.322Z,100149.09
2018-05-21T20:44:19.945Z,100147.88
2018-05-21T20:46:47.517Z,100136.12
2018-05-21T20:49:15.132Z,100141.46
2018-05-21T20:51:42.702Z,100126.32
2018-05-21T20:54:10.269Z,100130.75
2018-05-21T20:56:37.841Z,100136.23
2018-05-21T20:59:05.471Z,100134.91
2018-05-21T21:01:33.106Z,100130.88
2018-05-21T21:04:00.737Z,100134.64
2018-05-21T21:06:28.300Z,100131.42
2018-05-21T21:08:55.878Z,100133.41
2018-05-21T21:11:23.443Z,100133.97
2018-05-21T21:13:51.022Z,100137.73
2018-05-21T21:16:18.585Z,100141.28
2018-05-21T21:18:46.147Z,100142.67
2018-05-21T21:21:13.792Z,100144.44
2018-05-21T21:23:41.356Z,100146.53
2018-05-21T21:26:08.986Z,100144.23
2018-05-21T21:28:36.609Z,100151.33
2018-05-21T21:31:04.289Z,100146.94
2018-05-21T21:33:31.848Z,100155.75
2018-05-21T21:35:59.404Z,100150.52
2018-05-21T21:38:26.994Z,100150.73
2018-05-21T21:40:54.625Z,100144.86
2018-05-21T21:43:22.204Z,100149.14
2018-05-21T21:45:49.768Z,100147.66
2018-05-21T21:48:17.462Z,100152.15
2018-05-21T21:50:45.023Z,100150.24
2018-05-21T21:53:12.584Z,100147.73
2018-05-21T21:55:40.214Z,100147.62
2018-05-21T21:58:07.766Z,100141.46
2018-05-21T22:00:35.442Z,100145.02
2018-05-21T22:03:02.990Z,100140.20
2018-05-21T22:05:30.548Z,100147.39
2018-05-21T22:07:58.119Z,100136.94
2018-05-21T22:10:25.737Z,100138.30
2018-05-21T22:12:53.417Z,100137.66
2018-05-21T22:15:21.045Z,100142.05
2018-05-21T22:17:48.612Z,100137.35
2018-05-21T22:20:16.189Z,100138.92
2018-05-21T22:22:43.812Z,100147.18
2018-05-21T22:25:11.450Z,100141.92
2018-05-21T22:27:39.020Z,100142.66
2018-05-21T22:30:06.647Z,100145.16
2018-05-21T22:32:34.225Z,100139.13
2018-05-21T22:35:01.790Z,100137.77
2018-05-21T22:37:29.425Z,100139.23
2018-05-21T22:39:57.045Z,100145.09
2018-05-21T22:42:24.929Z,100142.06
2018-05-21T22:44:52.554Z,100145.95
2018-05-21T22:47:20.181Z,100136.52
2018-05-21T22:49:47.751Z,100147.80
2018-05-21T22:52:15.371Z,100149.17
2018-05-21T22:54:43.009Z,100143.52
2018-05-21T22:57:10.648Z,100142.27
2018-05-21T22:59:38.215Z,100141.95
2018-05-21T23:04:38.612Z,100140.00
2018-05-21T23:07:06.181Z,100135.40
2018-05-21T23:09:33.740Z,100138.33
2018-05-21T23:12:01.375Z,100130.48
2018-05-21T23:14:29.023Z,100137.52
2018-05-21T23:16:56.620Z,100135.64
2018-05-21T23:19:24.190Z,100133.45
2018-05-21T23:21:51.812Z,100131.35
2018-05-21T23:24:19.446Z,100127.94
2018-05-21T23:26:47.073Z,100127.12
2018-05-21T23:29:14.652Z,100118.97
2018-05-21T23:31:42.211Z,100125.05
2018-05-21T23:34:09.783Z,100127.13
2018-05-21T23:36:37.353Z,100127.98
2018-05-21T23:39:05.776Z,100126.30
2018-05-21T23:41:33.449Z,100133.61
2018-05-21T23:44:01.084Z,100132.79
2018-05-21T23:46:28.652Z,100137.38
2018-05-21T23:48:56.312Z,100130.91
2018-05-21T23:51:23.872Z,100133.39
2018-05-21T23:53:51.494Z,100132.45
2018-05-21T23:56:19.072Z,100133.62
2018-05-21T23:58:46.642Z,100130.80
